Current Weather

Al Ain Intl

Al Ain Intl, United Arab Emirates (OMAL)

Report from: Wednesday, September 28, 2022 9:00 AM UTC
Current time: Wednesday, September 28, 2022 9:24 AM UTC

Nearby weather
Weather history
Weather forecast

Temperature35.0°C (95.0°F)
Heat index37.7°C (99.9°F)
Dew point20.0°C (68.0°F)
Winds 7 kts (3.6 m/s, 8.1 mph) Vrb
Winds variableWinds variable from North-Northeast (30°) to Northwest (310°)
Clouds Sky clear
Altimeter29.74 in.Hg (1007 mB)
Relative humidity42 %
Density altitude2,795 ft. (852 m)
Remarks Ceiling and visibility OK
No significant changes expected in the next two hours
Flight conditions Visual Meteorological Conditions
Raw dataOMAL 280900Z 33007KT 310V030 CAVOK 35/20 Q1007 NOSIG
An error has occurred. This application may no longer respond until reloaded. Reload 🗙